Map

Track Data

SID SEASON NUMBER BASIN SUBBASIN NAME ISO_TIME NATURE LAT LON WMO_WIND WMO_PRES WMO_AGENCY TRACK_TYPE DIST2LAND LANDFALL IFLAG USA_AGENCY USA_ATCF_ID USA_LAT USA_LON USA_RECORD USA_STATUS USA_WIND USA_PRES USA_SSHS USA_R34_NE USA_R34_SE USA_R34_SW USA_R34_NW USA_R50_NE USA_R50_SE USA_R50_SW USA_R50_NW USA_R64_NE USA_R64_SE USA_R64_SW USA_R64_NW USA_POCI USA_ROCI USA_RMW USA_EYE TOKYO_LAT TOKYO_LON TOKYO_GRADE TOKYO_WIND TOKYO_PRES TOKYO_R50_DIR TOKYO_R50_LONG TOKYO_R50_SHORT TOKYO_R30_DIR TOKYO_R30_LONG TOKYO_R30_SHORT TOKYO_LAND CMA_LAT CMA_LON CMA_CAT CMA_WIND CMA_PRES HKO_LAT HKO_LON HKO_CAT HKO_WIND HKO_PRES NEWDELHI_LAT NEWDELHI_LON NEWDELHI_GRADE NEWDELHI_WIND NEWDELHI_PRES NEWDELHI_CI NEWDELHI_DP NEWDELHI_POCI REUNION_LAT REUNION_LON REUNION_TYPE REUNION_WIND REUNION_PRES REUNION_TNUM REUNION_CI REUNION_RMW REUNION_R34_NE REUNION_R34_SE REUNION_R34_SW REUNION_R34_NW REUNION_R50_NE REUNION_R50_SE REUNION_R50_SW REUNION_R50_NW REUNION_R64_NE REUNION_R64_SE REUNION_R64_SW REUNION_R64_NW BOM_LAT BOM_LON BOM_TYPE BOM_WIND BOM_PRES BOM_TNUM BOM_CI BOM_RMW BOM_R34_NE BOM_R34_SE BOM_R34_SW BOM_R34_NW BOM_R50_NE BOM_R50_SE BOM_R50_SW BOM_R50_NW BOM_R64_NE BOM_R64_SE BOM_R64_SW BOM_R64_NW BOM_ROCI BOM_POCI BOM_EYE BOM_POS_METHOD BOM_PRES_METHOD NADI_LAT NADI_LON NADI_CAT NADI_WIND NADI_PRES WELLINGTON_LAT WELLINGTON_LON WELLINGTON_WIND WELLINGTON_PRES DS824_LAT DS824_LON DS824_STAGE DS824_WIND DS824_PRES TD9636_LAT TD9636_LON TD9636_STAGE TD9636_WIND TD9636_PRES TD9635_LAT TD9635_LON TD9635_WIND TD9635_PRES TD9635_ROCI NEUMANN_LAT NEUMANN_LON NEUMANN_CLASS NEUMANN_WIND NEUMANN_PRES MLC_LAT MLC_LON MLC_CLASS MLC_WIND MLC_PRES USA_GUST BOM_GUST BOM_GUST_PER REUNION_GUST REUNION_GUST_PER USA_SEAHGT USA_SEARAD_NE USA_SEARAD_SE USA_SEARAD_SW USA_SEARAD_NW STORM_SPEED STORM_DIR
1976015S18122 1976 6 SI WA VANESSA 1976-01-15 00:00:00 TS -17.7000 121.800 main 33 33 O_________O___ jtwc_sh SH111976 -17.7000 121.800 -1 -17.7000 121.800 2 5 214
1976015S18122 1976 6 SI WA VANESSA 1976-01-15 01:00:00 TS -17.7735 121.749 20 1000 bom main 47 47 P_____O___P___ SH111976 -17.7743 121.720 -1 -17.8000 121.900 20 20 1000 1.00000 1.00000 -17.7586 121.730 2 6 230
1976015S18122 1976 6 SI WA VANESSA 1976-01-15 03:00:00 TS -17.8948 121.553 main 62 62 P_____P___P___ SH111976 -17.9176 121.558 -1 -17.8569 121.488 20 23 999 -17.8742 121.586 2 7 238
1976015S18122 1976 6 SI WA VANESSA 1976-01-15 04:00:00 TS -17.9530 121.449 25 999 bom main 69 69 P_____O___P___ SH111976 -17.9841 121.474 -1 -17.9000 121.300 20 25 999 1.00000 -17.9306 121.509 2 7 243
1976015S18122 1976 6 SI WA VANESSA 1976-01-15 06:00:00 TS -18.0592 121.218 main 76 76 O_____P__OP_O_ jtwc_sh SH111976 -18.1000 121.300 -1 -18.0278 120.969 20 25 997 -18.0000 121.000 TC 35 997 -18.0388 121.338 2 -18.0000 121.300 TC 35 998 8 246
1976015S18122 1976 6 SI WA VANESSA 1976-01-15 07:00:00 TS -18.1078 121.079 25 997 bom main 84 84 P_____O__PP_P_ SH111976 -18.1473 121.208 -1 -18.1000 120.800 20 25 997 1.00000 -18.0677 120.784 TC 35 997 -18.0898 121.241 2 -18.0412 121.089 TC 35 997 9 252
1976015S18122 1976 6 SI WA VANESSA 1976-01-15 09:00:00 TS -18.2016 120.765 main 104 104 P_____P__PP_P_ SH111976 -18.2222 121.002 -1 -18.2491 120.405 20 25 997 -18.1906 120.363 TC 35 997 -18.1840 121.020 2 -18.1180 120.675 TC 35 997 10 255
1976015S18122 1976 6 SI WA VANESSA 1976-01-15 10:00:00 TS -18.2368 120.583 25 997 bom main 124 124 P_____O__PP_P_ SH111976 -18.2519 120.884 -1 -18.3000 120.200 20 25 997 1.00000 -18.2399 120.163 TC 35 997 -18.2264 120.893 2 -18.1510 120.475 TC 35 997 10 260
1976015S18122 1976 6 SI WA VANESSA 1976-01-15 12:00:00 TS -18.2865 120.247 main 161 161 O_____P__OO_O_ jtwc_sh SH111976 -18.3000 120.600 -1 -18.3188 119.784 20 25 997 -18.3000 119.800 TC 35 997 -18.3000 120.600 2 -18.2000 120.100 TC 35 997 10 263
1976015S18122 1976 6 SI WA VANESSA 1976-01-15 13:00:00 TS -18.3001 120.075 25 997 bom main 168 168 P_____O__PP_P_ SH111976 -18.3251 120.423 -1 -18.3000 119.600 20 25 997 1.00000 -18.3060 119.641 TC 35 996 -18.3305 120.432 2 -18.2139 119.928 TC 35 996 10 268
1976015S18122 1976 6 SI WA VANESSA 1976-01-15 15:00:00 TS -18.3070 119.733 main 186 186 P_____P__PP_P_ SH111976 -18.3652 120.023 -1 -18.2308 119.315 20 25 997 -18.2797 119.362 TC 35 996 -18.3785 120.061 2 -18.2223 119.612 TC 35 996 10 269
1976015S18122 1976 6 SI WA VANESSA 1976-01-15 16:00:00 TS -18.3050 119.565 25 998 bom main 189 189 P_____O__PP_P_ SH111976 -18.3802 119.811 -1 -18.2000 119.200 20 25 998 1.00000 -18.2549 119.237 TC 35 996 -18.3962 119.864 2 -18.2186 119.468 TC 35 996 9 271
1976015S18122 1976 6 SI WA VANESSA 1976-01-15 18:00:00 TS -18.3023 119.243 main 200 200 O_____P__OP_O_ jtwc_sh SH111976 -18.4000 119.400 -1 -18.1945 118.995 20 25 996 -18.2000 119.000 TC 35 996 -18.4195 119.462 2 -18.2000 119.200 TC 35 996 9 270
1976015S18122 1976 6 SI WA VANESSA 1976-01-15 19:00:00 TS -18.3024 119.084 25 996 bom main 201 201 P_____O__PP_P_ SH111976 -18.4083 119.204 -1 -18.2000 118.900 20 25 996 1.00000 -18.1833 118.870 TC 35 996 -18.4252 119.263 2 -18.1890 119.067 TC 35 996 9 271
1976015S18122 1976 6 SI WA VANESSA 1976-01-15 21:00:00 TS -18.2951 118.783 main 203 203 P_____P__PP_P_ SH111976 -18.4150 118.832 -1 -18.2079 118.708 20 25 996 -18.1500 118.620 TC 35 996 -18.4254 118.883 2 -18.1574 118.820 TC 35 996 8 272
1976015S18122 1976 6 SI WA VANESSA 1976-01-15 22:00:00 TS -18.2865 118.642 25 997 bom main 208 208 P_____O__PP_P_ SH111976 -18.4134 118.667 -1 -18.2000 118.600 20 25 997 1.00000 -18.1333 118.504 TC 35 996 -18.4202 118.707 2 -18.1387 118.707 TC 35 996 8 276
1976015S18122 1976 6 SI WA VANESSA 1976-01-16 00:00:00 TS -18.2551 118.387 main 214 214 O_____P__OO_O_ jtwc_sh SH111976 -18.4000 118.400 -1 -18.1309 118.323 20 25 997 -18.1000 118.300 TC 35 997 -18.4000 118.400 2 -18.1000 118.500 TC 35 996 7 278
1976015S18122 1976 6 SI WA VANESSA 1976-01-16 01:00:00 TS -18.2379 118.289 25 997 bom main 228 228 P_____O__PP_P_ SH111976 -18.3915 118.313 -1 -18.1000 118.200 20 25 997 1.00000 1.00000 -18.0806 118.216 TC 35 997 -18.3831 118.291 2 -18.0807 118.403 TC 35 996 5 282
1976015S18122 1976 6 SI WA VANESSA 1976-01-16 03:00:00 TS -18.2089 118.148 main 237 237 P_____P__PP_P_ SH111976 -18.3647 118.205 -1 -18.1024 118.056 20 25 997 -18.0424 118.078 TC 35 997 -18.3365 118.117 2 -18.0424 118.228 TC 35 996 4 284
1976015S18122 1976 6 SI WA VANESSA 1976-01-16 04:00:00 TS -18.1921 118.092 25 997 bom main 237 237 P_____O__PP_P_ SH111976 -18.3465 118.170 -1 -18.1000 118.000 20 25 997 1.00000 -18.0253 118.017 TC 35 997 -18.3087 118.048 2 -18.0254 118.148 TC 35 996 3 292
1976015S18122 1976 6 SI WA VANESSA 1976-01-16 06:00:00 TS -18.1466 117.984 main 251 251 O_____P__OP_O_ jtwc_sh SH111976 -18.3000 118.100 -1 -18.0309 117.867 20 25 997 -18.0000 117.900 TC 35 998 -18.2489 117.937 2 -18.0000 118.000 TC 35 997 4 293
1976015S18122 1976 6 SI WA VANESSA 1976-01-16 07:00:00 TS -18.1227 117.920 25 998 bom main 256 256 P_____O__PP_P_ SH111976 -18.2671 118.036 -1 -18.0000 117.800 20 25 998 1.50000 -17.9917 117.831 TC 35 997 -18.2186 117.892 2 -17.9917 117.922 TC 35 997 4 289
1976015S18122 1976 6 SI WA VANESSA 1976-01-16 09:00:00 TS -18.0852 117.792 main 259 259 P_____P__PP_P_ SH111976 -18.1925 117.900 -1 -17.9946 117.667 20 25 997 -17.9850 117.693 TC 35 997 -18.1618 117.814 2 -17.9850 117.778 TC 35 997 4 286
1976015S18122 1976 6 SI WA VANESSA 1976-01-16 10:00:00 TS -18.0705 117.729 25 997 bom main 260 260 P_____O__PP_P_ SH111976 -18.1563 117.831 -1 -18.0000 117.600 20 25 997 1.50000 -17.9867 117.625 TC 35 997 -18.1372 117.777 2 -17.9867 117.712 TC 35 997 4 282
1976015S18122 1976 6 SI WA VANESSA 1976-01-16 12:00:00 TS -18.0487 117.610 main 273 273 O_____P__OO_O_ jtwc_sh SH111976 -18.1000 117.700 -1 -17.9921 117.459 20 25 997 -18.0000 117.500 TC 35 997 -18.1000 117.700 2 -18.0000 117.600 TC 35 997 3 277
1976015S18122 1976 6 SI WA VANESSA 1976-01-16 13:00:00 TS -18.0493 117.556 25 997 bom main 273 264 P_____O__PP_P_ SH111976 -18.0859 117.647 -1 -18.0000 117.400 20 25 997 1.50000 -18.0109 117.442 TC 35 997 -18.1022 117.648 2 -18.0109 117.555 TC 35 997 3 260
1976015S18122 1976 6 SI WA VANESSA 1976-01-16 15:00:00 TS -18.0716 117.466 main 264 264 P_____P__PP_P_ SH111976 -18.0774 117.550 -1 -18.0691 117.328 20 25 997 -18.0425 117.335 TC 35 997 -18.1204 117.546 2 -18.0425 117.485 TC 35 997 3 254
1976015S18122 1976 6 SI WA VANESSA 1976-01-16 16:00:00 TS -18.0865 117.424 25 997 bom main 267 267 P_____O__PP_P_ SH111976 -18.0812 117.502 -1 -18.1000 117.300 20 25 997 1.50000 -18.0612 117.287 TC 35 997 -18.1341 117.494 2 -18.0612 117.456 TC 35 997 3 253
1976015S18122 1976 6 SI WA VANESSA 1976-01-16 18:00:00 TS -18.1104 117.337 main 270 270 O_____P__OP_O_ jtwc_sh SH111976 -18.1000 117.400 -1 -18.0975 117.233 20 25 997 -18.1000 117.200 TC 35 998 -18.1647 117.388 2 -18.1000 117.400 TC 35 997 3 251
1976015S18122 1976 6 SI WA VANESSA 1976-01-16 19:00:00 TS -18.1285 117.292 25 998 bom main 270 263 P_____O__PP_P_ SH111976 -18.1188 117.342 -1 -18.1000 117.200 20 25 998 1.50000 -18.1271 117.166 TC 35 997 -18.1793 117.332 2 -18.1271 117.372 TC 35 996 3 243
1976015S18122 1976 6 SI WA VANESSA 1976-01-16 21:00:00 TS -18.1768 117.200 main 263 263 P_____P__PP_P_ SH111976 -18.1650 117.215 -1 -18.1691 117.133 20 25 995 -18.1800 117.108 TC 35 997 -18.2016 117.211 2 -18.1800 117.315 TC 35 996 3 244
1976015S18122 1976 6 SI WA VANESSA 1976-01-16 22:00:00 TS -18.1955 117.150 25 995 bom main 267 267 P_____O__PP_P_ SH111976 -18.1849 117.147 -1 -18.2000 117.100 20 25 995 1.50000 -18.1982 117.077 TC 35 996 -18.2069 117.146 2 -18.1982 117.283 TC 35 996 3 260
1976015S18122 1976 6 SI WA VANESSA 1976-01-17 00:00:00 TS -18.2035 117.042 main 269 269 O_____P__OO_O_ jtwc_sh SH111976 -18.2000 117.000 -1 -18.2212 117.049 20 25 995 -18.2000 117.000 TC 35 996 -18.2000 117.000 2 -18.2000 117.200 TC 35 996 3 275
1976015S18122 1976 6 SI WA VANESSA 1976-01-17 01:00:00 TS -18.1809 116.978 25 996 bom main 269 268 P_____O__PP_P_ SH111976 -18.1864 116.928 -1 -18.2000 117.000 20 25 996 1.50000 1.50000 -18.1728 116.947 TC 35 996 -18.1699 116.918 2 -18.1702 117.147 TC 35 996 5 297
1976015S18122 1976 6 SI WA VANESSA 1976-01-17 03:00:00 TS -18.0966 116.822 main 279 279 P_____P__PP_P_ SH111976 -18.1299 116.773 -1 -18.0776 116.803 20 25 996 -18.0800 116.822 TC 35 996 -18.0897 116.739 2 -18.0725 117.022 TC 35 996 5 301
1976015S18122 1976 6 SI WA VANESSA 1976-01-17 04:00:00 TS -18.0433 116.737 25 996 bom main 290 290 P_____O__PP_P_ SH111976 -18.0908 116.688 -1 -18.0000 116.700 20 25 996 2.00000 -18.0217 116.752 TC 35 996 -18.0428 116.644 2 -18.0138 116.952 TC 35 996 6 304
1976015S18122 1976 6 SI WA VANESSA 1976-01-17 06:00:00 TS -17.9335 116.568 main 302 302 O_____P__OP_O_ jtwc_sh SH111976 -18.0000 116.500 -1 -17.8587 116.561 20 25 996 -17.9000 116.600 TC 35 996 -17.9425 116.444 2 -17.9000 116.800 TC 35 996 6 304
1976015S18122 1976 6 SI WA VANESSA 1976-01-17 07:00:00 TS -17.8792 116.482 25 996 bom main 302 302 P_____O__PP_P_ SH111976 -17.9452 116.395 -1 -17.8000 116.500 20 25 996 2.00000 -17.8368 116.530 TC 35 996 -17.8923 116.340 2 -17.8557 116.730 TC 35 996 6 301
1976015S18122 1976 6 SI WA VANESSA 1976-01-17 09:00:00 TS -17.7786 116.298 main 316 316 P_____P__PP_P_ SH111976 -17.8275 116.165 -1 -17.7279 116.375 20 25 996 -17.7124 116.380 TC 35 996 -17.7991 116.127 2 -17.7774 116.580 TC 35 996 6 298
1976015S18122 1976 6 SI WA VANESSA 1976-01-17 10:00:00 TS -17.7354 116.200 25 996 bom main 328 328 P_____O__PP_P_ SH111976 -17.7738 116.044 -1 -17.7000 116.300 20 25 996 2.00000 -17.6604 116.296 TC 35 996 -17.7591 116.018 2 -17.7453 116.496 TC 35 996 6 290
1976015S18122 1976 6 SI WA VANESSA 1976-01-17 12:00:00 TS -17.6696 115.986 main 332 332 O_____P__OO_O_ jtwc_sh SH111976 -17.7000 115.800 -1 -17.6175 116.113 20 28 996 -17.6000 116.100 TC 35 996 -17.7000 115.800 2 -17.7000 116.300 TC 35 996 6 283
1976015S18122 1976 6 SI WA VANESSA 1976-01-17 13:00:00 TS -17.6636 115.870 30 996 bom main 335 335 P_____O__PP_P_ SH111976 -17.6938 115.681 -1 -17.6000 116.000 20 30 996 2.50000 -17.6074 115.987 TC 35 996 -17.7031 115.690 2 -17.6834 116.184 TC 35 996 7 266
1976015S18122 1976 6 SI WA VANESSA 1976-01-17 15:00:00 TS -17.6947 115.625 main 344 344 P_____P__PP_P_ SH111976 -17.7200 115.443 -1 -17.6558 115.747 20 30 996 -17.6700 115.730 TC 35 996 -17.7323 115.467 2 -17.6700 115.922 TC 35 996 7 261
1976015S18122 1976 6 SI WA VANESSA 1976-01-17 16:00:00 TS -17.7220 115.496 30 996 bom main 348 341 P_____O__PP_P_ SH111976 -17.7449 115.326 -1 -17.7000 115.600 20 30 996 2.50000 -17.7141 115.591 TC 35 996 -17.7549 115.354 2 -17.6734 115.783 TC 35 996 8 257
1976015S18122 1976 6 SI WA VANESSA 1976-01-17 18:00:00 TS -17.7791 115.232 main 350 350 O_____P__OP_O_ jtwc_sh SH111976 -17.8000 115.100 -1 -17.7667 115.264 20 30 996 -17.8000 115.300 TC 35 996 -17.8076 115.129 2 -17.7000 115.500 TC 35 996 8 257
1976015S18122 1976 6 SI WA VANESSA 1976-01-17 19:00:00 TS -17.8081 115.103 30 996 bom main 355 355 P_____O__PP_P_ SH111976 -17.8245 114.992 -1 -17.8000 115.100 20 30 996 2.50000 -17.8329 115.151 TC 35 995 -17.8342 115.017 2 -17.7324 115.367 TC 35 995 7 256
1976015S18122 1976 6 SI WA VANESSA 1976-01-17 21:00:00 TS -17.8668 114.857 main 356 356 P_____P__PP_P_ SH111976 -17.8724 114.785 -1 -17.8745 114.828 20 30 995 -17.8875 114.843 TC 37 995 -17.8792 114.801 2 -17.8149 115.100 TC 37 995 7 257
1976015S18122 1976 6 SI WA VANESSA 1976-01-17 22:00:00 TS -17.8887 114.738 30 995 bom main 367 367 P_____O__PP_P_ SH111976 -17.8903 114.687 -1 -17.9000 114.700 20 30 995 2.50000 -17.9037 114.690 TC 38 994 -17.8940 114.697 2 -17.8540 114.967 TC 38 994 7 264
1976015S18122 1976 6 SI WA VANESSA 1976-01-18 00:00:00 TS -17.9035 114.504 main 379 379 O_____P__OO_O_ jtwc_sh SH111976 -17.9000 114.500 -1 -17.9212 114.425 20 30 994 -17.9000 114.400 TC 40 994 -17.9000 114.500 2 -17.9000 114.700 TC 40 994 7 270
1976015S18122 1976 6 SI WA VANESSA 1976-01-18 01:00:00 TS -17.8894 114.389 30 994 bom main 385 385 P_____O__PP_P_ SH111976 -17.8890 114.408 -1 -17.9000 114.300 20 30 994 2.50000 2.50000 -17.8781 114.261 TC 40 993 -17.8829 114.403 2 -17.8974 114.553 TC 40 993 6 285
1976015S18122 1976 6 SI WA VANESSA 1976-01-18 03:00:00 TS -17.8200 114.176 main 405 405 P_____P__PP_P_ SH111976 -17.8375 114.235 -1 -17.7696 114.102 20 30 993 -17.7950 114.005 TC 42 993 -17.8277 114.217 2 -17.8526 114.262 TC 42 993 6 291
1976015S18122 1976 6 SI WA VANESSA 1976-01-18 04:00:00 TS -17.7729 114.076 30 993 bom main 410 410 P_____O__PP_P_ SH111976 -17.7987 114.153 -1 -17.7000 114.000 20 30 993 2.50000 -17.7375 113.891 TC 43 992 -17.7903 114.130 2 -17.8122 114.127 TC 43 992 6 297
1976015S18122 1976 6 SI WA VANESSA 1976-01-18 06:00:00 TS -17.6735 113.880 main 431 431 O_____P__OP_O_ jtwc_sh SH111976 -17.7000 114.000 -1 -17.6437 113.715 20 33 992 -17.6000 113.700 TC 45 992 -17.6974 113.967 2 -17.7000 113.900 TC 45 992 6 300
1976015S18122 1976 6 SI WA VANESSA 1976-01-18 07:00:00 TS -17.6170 113.795 35 992 bom main 446 446 P_____O__PP_P_ SH111976 -17.6500 113.920 -1 -17.6000 113.600 30 35 992 2.50000 -17.5254 113.619 TC 45 992 -17.6427 113.892 2 -17.6337 113.816 TC 45 992 6 315
1976015S18122 1976 6 SI WA VANESSA 1976-01-18 09:00:00 TS -17.4698 113.668 main 462 462 P_____P__PP_P_ SH111976 -17.5300 113.770 -1 -17.4108 113.517 30 35 992 -17.3574 113.498 TC 45 992 -17.5184 113.758 2 -17.4724 113.698 TC 45 992 6 324
1976015S18122 1976 6 SI WA VANESSA 1976-01-18 10:00:00 TS -17.3870 113.620 35 992 bom main 477 477 P_____O__PP_P_ SH111976 -17.4600 113.704 -1 -17.3000 113.500 30 35 992 2.50000 -17.2696 113.455 TC 45 992 -17.4495 113.699 2 -17.3829 113.657 TC 45 992 6 334
1976015S18122 1976 6 SI WA VANESSA 1976-01-18 12:00:00 TS -17.2153 113.538 main 501 501 O_____P__OO_O_ jtwc_sh SH111976 -17.3000 113.600 -1 -17.0921 113.425 30 35 992 -17.1000 113.400 TC 45 992 -17.3000 113.600 2 -17.2000 113.600 TC 45 992 6 338
1976015S18122 1976 6 SI WA VANESSA 1976-01-18 13:00:00 TS -17.1297 113.509 35 992 bom main 511 511 P_____O__PP_P_ SH111976 -17.2088 113.566 -1 -17.0000 113.400 30 35 992 2.50000 -17.0276 113.383 TC 45 992 -17.2189 113.567 2 -17.1140 113.569 TC 45 992 5 348
1976015S18122 1976 6 SI WA VANESSA 1976-01-18 15:00:00 TS -16.9586 113.480 main 520 520 P_____P__PP_P_ SH111976 -17.0075 113.528 -1 -16.8612 113.395 30 35 992 -16.8925 113.378 TC 45 992 -17.0404 113.524 2 -16.9425 113.528 TC 45 992 5 352
1976015S18122 1976 6 SI WA VANESSA 1976-01-18 16:00:00 TS -16.8730 113.474 35 992 bom main 529 529 P_____O__PP_P_ SH111976 -16.9029 113.517 -1 -16.8000 113.400 30 35 992 2.50000 -16.8279 113.384 TC 45 992 -16.9454 113.511 2 -16.8588 113.515 TC 45 992 5 356
1976015S18122 1976 6 SI WA VANESSA 1976-01-18 18:00:00 TS -16.7027 113.466 main 549 549 O_____P__OP_O_ jtwc_sh SH111976 -16.7000 113.500 -1 -16.6667 113.400 30 35 992 -16.7000 113.400 TC 45 992 -16.7497 113.493 2 -16.7000 113.500 TC 45 992 5 355
1976015S18122 1976 6 SI WA VANESSA 1976-01-18 19:00:00 TS -16.6206 113.463 35 992 bom main 558 558 P_____O__PP_P_ SH111976 -16.6057 113.491 -1 -16.6000 113.400 30 35 992 2.50000 -16.6333 113.405 TC 45 992 -16.6513 113.485 2 -16.6276 113.502 TC 45 992 5 358
1976015S18122 1976 6 SI WA VANESSA 1976-01-18 21:00:00 TS -16.4622 113.457 main 568 568 P_____P__PP_P_ SH111976 -16.4275 113.473 -1 -16.4667 113.400 30 35 992 -16.5000 113.415 TC 45 992 -16.4592 113.465 2 -16.4925 113.515 TC 45 992 5 358
1976015S18122 1976 6 SI WA VANESSA 1976-01-18 22:00:00 TS -16.3866 113.450 35 992 bom main 583 583 P_____O__PP_P_ SH111976 -16.3454 113.457 -1 -16.4000 113.400 30 35 992 2.50000 -16.4333 113.416 TC 45 992 -16.3678 113.449 2 -16.4279 113.518 TC 45 992 4 351
1976015S18122 1976 6 SI WA VANESSA 1976-01-19 00:00:00 TS -16.2444 113.415 main 602 602 O_____P__OO_O_ jtwc_sh SH111976 -16.2000 113.400 -1 -16.2667 113.392 30 38 992 -16.3000 113.400 TC 45 992 -16.2000 113.400 2 -16.3000 113.500 TC 45 992 4 344
1976015S18122 1976 6 SI WA VANESSA 1976-01-19 01:00:00 TS -16.1780 113.385 40 992 bom main 602 602 P_____O__PP_P_ SH111976 -16.1386 113.350 -1 -16.2000 113.400 30 40 992 2.50000 2.50000 -16.2307 113.386 TC 45 991 -16.1320 113.356 2 -16.2281 113.470 TC 45 991 4 335
1976015S18122 1976 6 SI WA VANESSA 1976-01-19 03:00:00 TS -16.0540 113.320 main 617 617 P_____P__PP_P_ SH111976 -16.0350 113.223 -1 -16.0666 113.509 30 40 992 -16.0925 113.338 TC 45 991 -16.0100 113.251 2 -16.0850 113.380 TC 45 991 4 329
1976015S18122 1976 6 SI WA VANESSA 1976-01-19 04:00:00 TS -15.9961 113.269 40 992 bom main 627 627 P_____O__PP_P_ SH111976 -15.9892 113.150 -1 -16.0000 113.500 30 40 992 2.50000 -16.0254 113.301 TC 45 990 -15.9551 113.192 2 -16.0175 113.324 TC 45 990 5 309
1976015S18122 1976 6 SI WA VANESSA 1976-01-19 06:00:00 TS -15.8857 113.105 main 647 647 O_____P__OP_O_ jtwc_sh SH111976 -15.9000 113.000 -1 -15.8589 113.168 30 43 990 -15.9000 113.200 TC 45 990 -15.8550 113.060 2 -15.9000 113.200 TC 45 990 6 304
1976015S18122 1976 6 SI WA VANESSA 1976-01-19 07:00:00 TS -15.8343 113.022 45 990 bom main 662 662 P_____O__PP_P_ SH111976 -15.8500 112.936 -1 -15.8000 113.000 30 45 990 3.00000 -15.8417 113.134 TC 45 990 -15.8090 112.989 2 -15.8552 113.139 TC 45 990 5 305
1976015S18122 1976 6 SI WA VANESSA 1976-01-19 09:00:00 TS -15.7450 112.894 main 678 678 P_____P__PP_P_ SH111976 -15.7500 112.808 -1 -15.7278 112.927 30 45 990 -15.7350 112.972 TC 45 990 -15.7225 112.839 2 -15.7850 113.008 TC 45 990 5 305
1976015S18122 1976 6 SI WA VANESSA 1976-01-19 10:00:00 TS -15.7039 112.827 45 990 bom main 683 683 P_____O__PP_P_ SH111976 -15.7000 112.741 -1 -15.7000 112.900 30 45 990 3.00000 -15.6867 112.883 TC 45 990 -15.6812 112.761 2 -15.7558 112.939 TC 45 990 5 299
1976015S18122 1976 6 SI WA VANESSA 1976-01-19 12:00:00 TS -15.6222 112.668 main 698 698 O_____P__OO_O_ jtwc_sh SH111976 -15.6000 112.600 -1 -15.6333 112.711 30 45 990 -15.6000 112.700 TC 45 990 -15.6000 112.600 2 -15.7000 112.800 TC 45 990 5 298
1976015S18122 1976 6 SI WA VANESSA 1976-01-19 13:00:00 TS -15.5794 112.585 45 990 bom main 704 704 P_____O__PP_P_ SH111976 -15.5474 112.522 -1 -15.6000 112.600 30 45 990 3.00000 -15.5609 112.617 TC 45 990 -15.5538 112.515 2 -15.6666 112.736 TC 45 990 5 297
1976015S18122 1976 6 SI WA VANESSA 1976-01-19 15:00:00 TS -15.4958 112.417 main 725 725 P_____P__PP_P_ SH111976 -15.4425 112.357 -1 -15.5333 112.392 30 45 990 -15.4925 112.450 TC 45 990 -15.4639 112.336 2 -15.6000 112.608 TC 45 990 5 297
1976015S18122 1976 6 SI WA VANESSA 1976-01-19 16:00:00 TS -15.4554 112.333 45 990 bom main 731 731 P_____O__PP_P_ SH111976 -15.3921 112.272 -1 -15.5000 112.300 30 45 990 3.00000 -15.4612 112.367 TC 45 990 -15.4202 112.244 2 -15.5666 112.541 TC 45 990 5 296
1976015S18122 1976 6 SI WA VANESSA 1976-01-19 18:00:00 TS -15.3781 112.172 main 746 746 O_____P__OP_O_ jtwc_sh SH111976 -15.3000 112.100 -1 -15.4333 112.169 30 45 990 -15.4000 112.200 TC 45 990 -15.3352 112.062 2 -15.5000 112.400 TC 45 990 5 296
1976015S18122 1976 6 SI WA VANESSA 1976-01-19 19:00:00 TS -15.3415 112.086 45 990 bom main 761 761 P_____O__PP_P_ SH111976 -15.2610 112.009 -1 -15.4000 112.100 30 45 990 3.00000 -15.3667 112.109 TC 45 990 -15.2940 111.974 2 -15.4667 112.315 TC 45 990 6 292
1976015S18122 1976 6 SI WA VANESSA 1976-01-19 21:00:00 TS -15.2721 111.902 main 770 761 P_____P__PP_P_ SH111976 -15.1925 111.828 -1 -15.3334 111.890 30 45 990 -15.3000 111.927 TC 45 990 -15.2139 111.808 2 -15.4001 112.135 TC 45 990 6 292
1976015S18122 1976 6 SI WA VANESSA 1976-01-19 22:00:00 TS -15.2385 111.818 45 990 bom main 761 761 P_____O__PP_P_ SH111976 -15.1613 111.743 -1 -15.3000 111.800 30 45 990 3.00000 -15.2667 111.843 TC 45 990 -15.1751 111.732 2 -15.3667 112.048 TC 45 990 5 296
1976015S18122 1976 6 SI WA VANESSA 1976-01-20 00:00:00 TS -15.1722 111.687 main 761 750 O_____P__OO_O_ jtwc_sh SH111976 -15.1000 111.600 -1 -15.2333 111.722 30 45 990 -15.2000 111.700 TC 45 990 -15.1000 111.600 2 -15.3000 111.900 TC 45 990 4 301
1976015S18122 1976 6 SI WA VANESSA 1976-01-20 01:00:00 TS -15.1377 111.640 45 990 bom main 750 750 P_____O__PP_P_ SH111976 -15.0666 111.547 -1 -15.2000 111.700 30 45 990 3.00000 3.00000 -15.1640 111.647 TC 45 989 -15.0620 111.550 2 -15.2666 111.850 TC 45 989 3 311
1976015S18122 1976 6 SI WA VANESSA 1976-01-20 03:00:00 TS -15.0690 111.565 main 750 739 P_____P__PP_P_ SH111976 -15.0000 111.470 -1 -15.1333 111.633 30 45 990 -15.0925 111.570 TC 47 989 -14.9886 111.471 2 -15.2000 111.778 TC 47 989 3 316
1976015S18122 1976 6 SI WA VANESSA 1976-01-20 04:00:00 TS -15.0353 111.536 45 990 bom main 739 739 P_____O__PP_P_ SH111976 -14.9666 111.442 -1 -15.1000 111.600 30 45 990 3.00000 -15.0587 111.542 TC 48 988 -14.9531 111.439 2 -15.1666 111.750 TC 48 988 3 324
1976015S18122 1976 6 SI WA VANESSA 1976-01-20 06:00:00 TS -14.9684 111.487 main 739 728 O_____P__OP_O_ jtwc_sh SH111976 -14.9000 111.400 -1 -15.0254 111.533 30 48 988 -15.0000 111.500 TC 50 988 -14.8848 111.390 2 -15.1000 111.700 TC 50 988 2 325
1976015S18122 1976 6 SI WA VANESSA 1976-01-20 07:00:00 TS -14.9378 111.462 50 988 bom main 728 728 P_____O__PP_P_ SH111976 -14.8667 111.378 -1 -15.0000 111.500 30 50 988 3.50000 -14.9776 111.480 TC 50 987 -14.8519 111.371 2 -15.0640 111.664 TC 50 987 2 320
1976015S18122 1976 6 SI WA VANESSA 1976-01-20 09:00:00 TS -14.8877 111.415 main 728 728 P_____P__PP_P_ SH111976 -14.8000 111.343 -1 -15.0025 111.425 30 50 988 -14.9425 111.450 TC 50 987 -14.7886 111.340 2 -14.9925 111.592 TC 52 987 2 316
1976015S18122 1976 6 SI WA VANESSA 1976-01-20 10:00:00 TS -14.8630 111.396 50 988 bom main 728 717 P_____O__PP_P_ SH111976 -14.7667 111.328 -1 -15.0000 111.400 30 50 988 3.50000 -14.9279 111.436 TC 50 986 -14.7583 111.326 2 -14.9588 111.559 TC 53 986 2 337
1976015S18122 1976 6 SI WA VANESSA 1976-01-20 12:00:00 TS -14.8065 111.367 main 717 717 O_____P__OO_O_ jtwc_sh SH111976 -14.7000 111.300 -1 -14.9388 111.402 30 50 986 -14.9000 111.400 TC 50 986 -14.7000 111.300 2 -14.9000 111.500 TC 55 986 2 333
1976015S18122 1976 6 SI WA VANESSA 1976-01-20 13:00:00 TS -14.7764 111.351 50 986 bom main 717 706 P_____O__PP_P_ SH111976 -14.6640 111.283 -1 -14.9000 111.400 30 50 986 3.50000 -14.8860 111.372 TC 50 986 -14.6667 111.285 2 -14.8776 111.480 TC 55 986 2 327
1976015S18122 1976 6 SI WA VANESSA 1976-01-20 15:00:00 TS -14.7187 111.309 main 706 706 P_____P__PP_P_ SH111976 -14.5925 111.250 -1 -14.8254 111.339 30 50 986 -14.8575 111.308 TC 50 986 -14.6015 111.259 2 -14.8425 111.450 TC 55 986 2 330
1976015S18122 1976 6 SI WA VANESSA 1976-01-20 16:00:00 TS -14.6928 111.287 50 986 bom main 706 706 P_____O__PP_P_ SH111976 -14.5588 111.233 -1 -14.8000 111.300 30 50 986 3.50000 -14.8412 111.272 TC 50 986 -14.5703 111.247 2 -14.8279 111.436 TC 55 986 2 313
1976015S18122 1976 6 SI WA VANESSA 1976-01-20 18:00:00 TS -14.6525 111.243 main 707 696 O_____P__OP_O_ jtwc_sh SH111976 -14.5000 111.200 -1 -14.8025 111.233 30 50 986 -14.8000 111.200 TC 50 986 -14.5124 111.223 2 -14.8000 111.400 TC 55 986 2 311
1976015S18122 1976 6 SI WA VANESSA 1976-01-20 19:00:00 TS -14.6342 111.221 50 986 bom main 696 696 P_____O__PP_P_ SH111976 -14.4750 111.189 -1 -14.8000 111.200 30 50 986 3.50000 -14.7776 111.167 TC 50 985 -14.4864 111.209 2 -14.7912 111.372 TC 55 985 2 314
1976015S18122 1976 6 SI WA VANESSA 1976-01-20 21:00:00 TS -14.5910 111.174 main 696 696 P_____P__PP_P_ SH111976 -14.4350 111.165 -1 -14.7388 111.133 30 50 984 -14.7225 111.100 TC 52 985 -14.4421 111.175 2 -14.7725 111.308 TC 55 985 2 313
1976015S18122 1976 6 SI WA VANESSA 1976-01-20 22:00:00 TS -14.5682 111.148 50 984 bom main 697 686 P_____O__PP_P_ SH111976 -14.4200 111.149 -1 -14.7000 111.100 30 50 984 3.50000 -14.6879 111.067 TC 53 984 -14.4245 111.154 2 -14.7570 111.272 TC 55 984 2 310
1976015S18122 1976 6 SI WA VANESSA 1976-01-21 00:00:00 TS -14.5235 111.089 main 686 686 O_____P__OO_O_ jtwc_sh SH111976 -14.4000 111.100 -1 -14.6412 111.033 30 50 984 -14.6000 111.000 TC 55 984 -14.4000 111.100 2 -14.7000 111.200 TC 55 984 2 306
1976015S18122 1976 6 SI WA VANESSA 1976-01-21 01:00:00 TS -14.4939 111.052 50 984 bom main 686 676 P_____O__PP_P_ SH111976 -14.3917 111.061 -1 -14.6000 111.000 30 50 984 3.50000 3.50000 -14.5448 110.967 TC 55 983 -14.3851 111.052 2 -14.6505 111.169 TC 55 983 3 310
1976015S18122 1976 6 SI WA VANESSA 1976-01-21 03:00:00 TS -14.4252 110.969 main 676 676 P_____P__PP_P_ SH111976 -14.3850 110.965 -1 -14.4800 110.933 30 50 984 -14.4150 110.900 TC 55 983 -14.3639 110.942 2 -14.5225 111.108 TC 55 983 3 311
1976015S18122 1976 6 SI WA VANESSA 1976-01-21 04:00:00 TS -14.3876 110.924 50 984 bom main 677 666 P_____O__PP_P_ SH111976 -14.3867 110.911 -1 -14.4000 110.900 30 50 984 3.50000 -14.3442 110.867 TC 55 983 -14.3584 110.883 2 -14.4496 111.075 TC 55 983 4 311
1976015S18122 1976 6 SI WA VANESSA 1976-01-21 06:00:00 TS -14.3096 110.833 main 668 668 O_____P__OP_O_ jtwc_sh SH111976 -14.4000 110.800 -1 -14.1975 110.833 30 50 983 -14.2000 110.800 TC 55 983 -14.3602 110.763 2 -14.3000 111.000 TC 55 983 4 312
1976015S18122 1976 6 SI WA VANESSA 1976-01-21 07:00:00 TS -14.2665 110.784 50 983 bom main 668 656 P_____O__PP_P_ SH111976 -14.4031 110.745 -1 -14.1000 110.800 30 50 983 3.50000 -14.1123 110.761 TC 55 982 -14.3683 110.705 2 -14.2124 110.948 TC 55 982 4 310
1976015S18122 1976 6 SI WA VANESSA 1976-01-21 09:00:00 TS -14.1958 110.689 main 658 658 P_____P__PP_P_ SH111976 -14.4200 110.635 -1 -13.9533 110.741 30 50 982 -13.9400 110.685 TC 55 982 -14.4014 110.602 2 -14.0400 110.835 TC 57 982 3 305
1976015S18122 1976 6 SI WA VANESSA 1976-01-21 10:00:00 TS -14.1738 110.643 50 982 bom main 660 660 P_____O__PP_P_ SH111976 -14.4375 110.584 -1 -13.9000 110.700 30 50 982 3.50000 -13.8701 110.651 TC 55 982 -14.4272 110.559 2 -13.9701 110.782 TC 58 982 3 284
1976015S18122 1976 6 SI WA VANESSA 1976-01-21 12:00:00 TS -14.1647 110.559 main 660 660 O_____P__OO_O_ jtwc_sh SH111976 -14.5000 110.500 -1 -13.7884 110.556 30 53 982 -13.8000 110.600 TC 55 982 -14.5000 110.500 2 -13.9000 110.700 TC 60 982 2 259
1976015S18122 1976 6 SI WA VANESSA 1976-01-21 13:00:00 TS -14.1946 110.525 55 982 bom main 662 662 P_____O__PP_P_ SH111976 -14.5469 110.459 -1 -13.8000 110.500 30 55 982 4.00000 -13.8052 110.581 TC 55 981 -14.5554 110.478 2 -13.9131 110.675 TC 60 981 4 203
1976015S18122 1976 6 SI WA VANESSA 1976-01-21 15:00:00 TS -14.3358 110.491 main 673 673 P_____P__PP_P_ SH111976 -14.6700 110.398 -1 -14.0711 110.481 30 55 982 -13.8950 110.563 TC 57 981 -14.6915 110.454 2 -14.0175 110.655 TC 60 981 5 190
1976015S18122 1976 6 SI WA VANESSA 1976-01-21 16:00:00 TS -14.4215 110.491 55 982 bom main 684 684 P_____O__PP_P_ SH111976 -14.7424 110.383 -1 -14.2000 110.500 30 55 982 4.00000 -13.9758 110.566 TC 58 981 -14.7689 110.453 2 -14.0995 110.660 TC 60 981 5 171
1976015S18122 1976 6 SI WA VANESSA 1976-01-21 18:00:00 TS -14.5668 110.523 main 706 706 O_____P__OP_O_ jtwc_sh SH111976 -14.9000 110.400 -1 -14.1664 110.561 30 55 981 -14.2000 110.600 TC 60 981 -14.9344 110.478 2 -14.3000 110.700 TC 60 981 5 166
1976015S18122 1976 6 SI WA VANESSA 1976-01-21 19:00:00 TS -14.6611 110.553 55 981 bom main 715 715 P_____O__PP_P_ SH111976 -14.9881 110.428 -1 -14.2000 110.600 30 55 981 4.00000 -14.3586 110.630 TC 60 980 -15.0193 110.504 2 -14.4127 110.730 TC 60 980 8 163
1976015S18122 1976 6 SI WA VANESSA 1976-01-21 21:00:00 TS -14.9296 110.641 main 737 737 P_____P__PP_P_ SH111976 -15.1724 110.532 -1 -14.6523 110.651 30 55 980 -14.7300 110.720 TC 60 979 -15.1851 110.588 2 -14.6650 110.820 TC 62 980 9 160
1976015S18122 1976 6 SI WA VANESSA 1976-01-21 22:00:00 TS -15.0641 110.702 55 980 bom main 758 756 P_____O__PP_P_ SH111976 -15.2594 110.608 -1 -14.9000 110.700 30 55 980 4.00000 -14.9131 110.776 TC 60 979 -15.2629 110.646 2 -14.7899 110.876 TC 63 979 8 147
1976015S18122 1976 6 SI WA VANESSA 1976-01-22 00:00:00 TS -15.2691 110.866 main 777 777 O_____P__OO_O_ jtwc_sh SH111976 -15.4000 110.800 -1 -15.2146 110.897 30 58 978 -15.2000 110.900 TC 60 978 -15.4000 110.800 2 -15.0000 111.000 TC 65 979 7 136
1976015S18122 1976 6 SI WA VANESSA 1976-01-22 01:00:00 TS -15.3222 110.956 60 978 bom main 776 776 P_____O__PP_P_ SH111976 -15.4369 110.908 -1 -15.3000 111.000 30 60 978 4.00000 4.00000 -15.2571 110.961 TC 61 977 -15.4355 110.900 2 -15.0671 111.061 TC 65 978 6 109
1976015S18122 1976 6 SI WA VANESSA 1976-01-22 03:00:00 TS -15.3647 111.148 main 786 784 P_____P__PP_P_ SH111976 -15.4725 111.163 -1 -15.3296 111.139 30 60 975 -15.2750 111.093 TC 65 975 -15.4862 111.141 2 -15.1525 111.193 TC 67 976 6 99
1976015S18122 1976 6 SI WA VANESSA 1976-01-22 04:00:00 TS -15.3660 111.251 60 975 bom main 780 773 P_____O__PP_P_ SH111976 -15.4805 111.304 -1 -15.3000 111.200 30 60 975 4.00000 -15.2543 111.161 TC 66 974 -15.5047 111.278 2 -15.1763 111.261 TC 68 975 6 89
1976015S18122 1976 6 SI WA VANESSA 1976-01-22 06:00:00 TS -15.3611 111.468 main 773 769 O_____P__OP_O_ jtwc_sh SH111976 -15.5000 111.600 -1 -15.2309 111.333 30 63 973 -15.2000 111.300 TC 70 973 -15.5359 111.576 2 -15.2000 111.400 TC 70 974 6 89
1976015S18122 1976 6 SI WA VANESSA 1976-01-22 07:00:00 TS -15.3623 111.575 65 973 bom main 769 763 P_____O__PP_P_ SH111976 -15.5198 111.750 -1 -15.2000 111.400 30 65 973 4.50000 -15.1842 111.359 TC 70 972 -15.5518 111.732 2 -15.1983 111.462 TC 70 973 6 93
1976015S18122 1976 6 SI WA VANESSA 1976-01-22 09:00:00 TS -15.3766 111.793 main 763 760 P_____P__PP_P_ SH111976 -15.5700 112.058 -1 -15.1946 111.533 30 68 970 -15.1549 111.478 TC 72 970 -15.5925 112.048 2 -15.1774 111.585 TC 72 971 6 95
1976015S18122 1976 6 SI WA VANESSA 1976-01-22 10:00:00 TS -15.3921 111.903 70 970 bom main 760 752 P_____O__PP_P_ SH111976 -15.6042 112.210 -1 -15.2000 111.600 40 70 970 4.50000 -15.1525 111.543 TC 73 969 -15.6205 112.203 2 -15.1713 111.651 TC 73 970 6 103
1976015S18122 1976 6 SI WA VANESSA 1976-01-22 12:00:00 TS -15.4474 112.121 main 752 737 O_____P__OO_O_ jtwc_sh SH111976 -15.7000 112.500 -1 -15.1842 111.725 40 73 968 -15.2000 111.700 TC 75 968 -15.7000 112.500 2 -15.2000 111.800 TC 75 969 7 109
1976015S18122 1976 6 SI WA VANESSA 1976-01-22 13:00:00 TS -15.5011 112.226 75 968 bom main 737 715 P_____O__PP_P_ SH111976 -15.7635 112.631 -1 -15.2000 111.800 40 75 968 4.50000 -15.2604 111.789 TC 75 967 -15.7722 112.630 2 -15.2469 111.878 TC 75 968 7 123
1976015S18122 1976 6 SI WA VANESSA 1976-01-22 15:00:00 TS -15.6503 112.443 main 706 700 P_____P__PP_P_ SH111976 -15.9199 112.873 -1 -15.2908 111.979 40 75 968 -15.4399 111.998 TC 75 967 -15.9417 112.882 2 -15.3899 112.055 TC 77 967 8 128
1976015S18122 1976 6 SI WA VANESSA 1976-01-22 16:00:00 TS -15.7480 112.558 75 968 bom main 694 655 P_____O__PP_P_ SH111976 -16.0091 112.985 -1 -15.4000 112.100 40 75 968 4.50000 -15.5515 112.119 TC 75 966 -16.0359 113.002 2 -15.4823 112.158 TC 78 967 10 134
1976015S18122 1976 6 SI WA VANESSA 1976-01-22 18:00:00 TS -15.9882 112.809 main 655 639 O_____P__OP_O_ jtwc_sh SH111976 -16.2000 113.200 -1 -15.7941 112.422 40 75 966 -15.8000 112.400 TC 75 966 -16.2349 113.232 2 -15.7000 112.400 TC 80 966 11 135
1976015S18122 1976 6 SI WA VANESSA 1976-01-22 19:00:00 TS -16.1189 112.947 75 966 bom main 639 603 P_____O__PP_P_ SH111976 -16.3048 113.308 -1 -16.0000 112.600 40 75 966 4.50000 -15.9378 112.573 TC 75 965 -16.3364 113.340 2 -15.8294 112.551 TC 80 965 11 134
1976015S18122 1976 6 SI WA VANESSA 1976-01-22 21:00:00 TS -16.3686 113.224 main 594 579 P_____P__PP_P_ SH111976 -16.5225 113.515 -1 -16.2854 112.926 40 78 963 -16.2303 112.957 TC 77 964 -16.5356 113.541 2 -16.1152 112.892 TC 82 964 11 132
1976015S18122 1976 6 SI WA VANESSA 1976-01-22 22:00:00 TS -16.4848 113.363 80 963 bom main 573 543 P_____O__PP_P_ SH111976 -16.6261 113.613 -1 -16.4000 113.100 40 80 963 5.00000 -16.3701 113.151 TC 78 963 -16.6299 113.633 2 -16.2567 113.068 TC 83 964 10 129
1976015S18122 1976 6 SI WA VANESSA 1976-01-23 00:00:00 TS -16.6882 113.638 main 543 538 O_____P__OO_O_ jtwc_sh SH111976 -16.8000 113.800 -1 -16.6292 113.526 40 80 962 -16.6000 113.500 TC 80 962 -16.8000 113.800 2 -16.5000 113.400 TC 85 963 9 125
1976015S18122 1976 6 SI WA VANESSA 1976-01-23 01:00:00 TS -16.7525 113.760 80 962 bom main 523 517 P_____O__PP_P_ SH111976 -16.8535 113.900 -1 -16.7000 113.700 40 80 962 5.00000 5.00000 -16.6674 113.631 TC 80 961 -16.8568 113.888 2 -16.5837 113.539 TC 85 962 7 115
1976015S18122 1976 6 SI WA VANESSA 1976-01-23 03:00:00 TS -16.8254 113.951 main 511 511 P_____P__PP_P_ SH111976 -16.9225 114.088 -1 -16.7083 113.847 40 80 961 -16.7448 113.845 TC 82 961 -16.9516 114.049 2 -16.7024 113.788 TC 85 961 6 110
1976015S18122 1976 6 SI WA VANESSA 1976-01-23 04:00:00 TS -16.8492 114.033 80 961 bom main 511 490 P_____O__PP_P_ SH111976 -16.9472 114.170 -1 -16.7000 113.900 40 80 961 5.00000 -16.7657 113.935 TC 83 960 -16.9921 114.121 2 -16.7429 113.899 TC 85 961 5 109
1976015S18122 1976 6 SI WA VANESSA 1976-01-23 06:00:00 TS -16.9043 114.190 main 490 484 O_____P__OP_O_ jtwc_sh SH111976 -17.0000 114.300 -1 -16.7612 114.095 40 80 960 -16.8000 114.100 TC 85 960 -17.0647 114.243 2 -16.8000 114.100 TC 85 960 5 111
1976015S18122 1976 6 SI WA VANESSA 1976-01-23 07:00:00 TS -16.9376 114.269 80 960 bom main 484 469 P_____O__PP_P_ SH111976 -17.0416 114.350 -1 -16.8000 114.200 40 80 960 5.00000 -16.8255 114.210 TC 85 959 -17.0992 114.292 2 -16.8176 114.211 TC 85 959 5 116
1976015S18122 1976 6 SI WA VANESSA 1976-01-23 09:00:00 TS -17.0032 114.403 main 469 469 P_____P__PP_P_ SH111976 -17.1349 114.410 -1 -16.8667 114.408 40 83 958 -16.8775 114.417 TC 85 958 -17.1704 114.365 2 -16.8350 114.410 TC 87 959 4 120
1976015S18122 1976 6 SI WA VANESSA 1976-01-23 10:00:00 TS -17.0397 114.453 85 958 bom main 464 454 P_____O__PP_P_ SH111976 -17.1866 114.420 -1 -16.9000 114.500 40 85 958 5.00000 -16.9096 114.502 TC 85 958 -17.2094 114.387 2 -16.8459 114.492 TC 88 958 3 140
1976015S18122 1976 6 SI WA VANESSA 1976-01-23 12:00:00 TS -17.1251 114.512 main 454 445 O_____P__OO_O_ jtwc_sh SH111976 -17.3000 114.400 -1 -16.9509 114.670 40 85 957 -17.0000 114.600 TC 85 957 -17.3000 114.400 2 -16.9000 114.600 TC 90 958 3 160
1976015S18122 1976 6 SI WA VANESSA 1976-01-23 13:00:00 TS -17.1839 114.510 85 957 bom main 445 435 P_____O__PP_P_ SH111976 -17.3583 114.373 -1 -17.0000 114.700 40 85 957 5.00000 -17.0662 114.598 TC 85 956 -17.3604 114.388 2 -16.9604 114.628 TC 90 957 4 199
1976015S18122 1976 6 SI WA VANESSA 1976-01-23 15:00:00 TS -17.3331 114.438 main 441 431 P_____P__PP_P_ SH111976 -17.4850 114.280 -1 -17.1891 114.596 40 85 955 -17.2275 114.518 TC 87 955 -17.4922 114.329 2 -17.1199 114.625 TC 92 956 5 209
1976015S18122 1976 6 SI WA VANESSA 1976-01-23 16:00:00 TS -17.4164 114.379 85 955 bom main 431 419 P_____O__PP_P_ SH111976 -17.5534 114.222 -1 -17.3000 114.500 40 85 955 5.00000 -17.3170 114.451 TC 88 954 -17.5631 114.284 2 -17.2115 114.597 TC 93 955 6 216
1976015S18122 1976 6 SI WA VANESSA 1976-01-23 18:00:00 TS -17.5854 114.247 main 424 414 O_____P__OP_O_ jtwc_sh SH111976 -17.7000 114.100 -1 -17.5000 114.305 40 88 953 -17.5000 114.300 TC 90 953 -17.7126 114.176 2 -17.4000 114.500 TC 95 954 6 217
1976015S18122 1976 6 SI WA VANESSA 1976-01-23 19:00:00 TS -17.6705 114.178 90 953 bom main 414 410 P_____O__PP_P_ SH111976 -17.7776 114.047 -1 -17.6000 114.200 40 90 953 5.50000 -17.5886 114.231 TC 90 952 -17.7907 114.114 2 -17.4886 114.429 TC 95 953 7 218
1976015S18122 1976 6 SI WA VANESSA 1976-01-23 21:00:00 TS -17.8458 114.030 main 416 407 P_____P__PP_P_ SH111976 -17.9425 113.943 -1 -17.8079 113.976 40 90 951 -17.7651 114.085 TC 92 951 -17.9517 113.985 2 -17.6651 114.250 TC 97 952 7 218
1976015S18122 1976 6 SI WA VANESSA 1976-01-23 22:00:00 TS -17.9314 113.963 90 951 bom main 407 395 P_____O__PP_P_ SH111976 -18.0279 113.892 -1 -17.9000 113.900 40 90 951 5.50000 -17.8492 114.015 TC 93 951 -18.0339 113.920 2 -17.7493 114.157 TC 98 952 6 212
1976015S18122 1976 6 SI WA VANESSA 1976-01-24 00:00:00 TS -18.0911 113.865 main 395 391 O_____P__OO_O_ jtwc_sh SH111976 -18.2000 113.800 -1 -18.0467 113.892 40 90 950 -18.0000 113.900 TC 95 950 -18.2000 113.800 2 -17.9000 114.000 TC 100 951 5 208
1976015S18122 1976 6 SI WA VANESSA 1976-01-24 01:00:00 TS -18.1620 113.833 90 950 bom main 391 382 P_____O__PP_P_ SH111976 -18.2833 113.761 -1 -18.1000 113.900 40 90 950 5.50000 5.50000 -18.0640 113.864 TC 95 950 -18.2800 113.757 2 -17.9614 113.958 TC 100 950 4 204
1976015S18122 1976 6 SI WA VANESSA 1976-01-24 03:00:00 TS -18.2920 113.771 main 382 382 P_____P__PP_P_ SH111976 -18.4500 113.692 -1 -18.1721 113.831 40 90 950 -18.1725 113.820 TC 95 950 -18.4428 113.677 2 -18.0649 113.912 TC 100 950 4 201
1976015S18122 1976 6 SI WA VANESSA 1976-01-24 04:00:00 TS -18.3536 113.746 90 951 bom main 379 370 P_____O__PP_P_ SH111976 -18.5333 113.661 -1 -18.2000 113.800 40 90 951 5.50000 -18.2187 113.809 TC 95 950 -18.5254 113.640 2 -18.1108 113.904 TC 100 950 4 198
1976015S18122 1976 6 SI WA VANESSA 1976-01-24 06:00:00 TS -18.4765 113.711 main 370 370 O_____P__OP_O_ jtwc_sh SH111976 -18.7000 113.600 -1 -18.2667 113.795 40 90 951 -18.3000 113.800 TC 95 951 -18.6925 113.570 2 -18.2000 113.900 TC 100 950 4 197
1976015S18122 1976 6 SI WA VANESSA 1976-01-24 07:00:00 TS -18.5348 113.693 90 951 bom main 370 362 P_____O__PP_P_ SH111976 -18.7833 113.564 -1 -18.3000 113.800 40 90 951 5.50000 -18.3233 113.797 TC 94 951 -18.7767 113.537 2 -18.2421 113.897 TC 99 950 4 193
1976015S18122 1976 6 SI WA VANESSA 1976-01-24 09:00:00 TS -18.6491 113.660 main 362 353 P_____P__PP_P_ SH111976 -18.9500 113.493 -1 -18.3588 113.800 40 90 952 -18.3625 113.800 TC 92 953 -18.9459 113.477 2 -18.3275 113.900 TC 97 951 4 194
1976015S18122 1976 6 SI WA VANESSA 1976-01-24 10:00:00 TS -18.7108 113.645 90 953 bom main 360 349 P_____O__PP_P_ SH111976 -19.0333 113.459 -1 -18.4000 113.800 40 90 953 5.50000 -18.3914 113.802 TC 91 953 -19.0307 113.450 2 -18.3763 113.902 TC 96 951 4 191
1976015S18122 1976 6 SI WA VANESSA 1976-01-24 12:00:00 TS -18.8507 113.617 main 338 338 O_____P__OO_O_ jtwc_sh SH111976 -19.2000 113.400 -1 -18.5042 113.800 40 90 954 -18.5000 113.800 TC 90 955 -19.2000 113.400 2 -18.5000 113.900 TC 95 953 5 189
1976015S18122 1976 6 SI WA VANESSA 1976-01-24 13:00:00 TS -18.9355 113.603 90 955 bom main 338 315 P_____O__PP_P_ SH111976 -19.2833 113.378 -1 -18.6000 113.800 40 90 955 5.50000 -18.5965 113.792 TC 88 956 -19.2747 113.385 2 -18.5750 113.889 TC 94 953 6 188
1976015S18122 1976 6 SI WA VANESSA 1976-01-24 15:00:00 TS -19.1436 113.581 main 315 304 P_____P__PP_P_ SH111976 -19.4500 113.342 -1 -18.9375 113.814 40 86 957 -18.8475 113.765 TC 85 958 -19.4214 113.363 2 -18.7550 113.858 TC 92 955 6 186
1976015S18122 1976 6 SI WA VANESSA 1976-01-24 16:00:00 TS -19.2524 113.566 85 958 bom main 293 284 P_____O__PP_P_ SH111976 -19.5333 113.328 -1 -19.1000 113.800 40 85 958 5.00000 -18.9928 113.747 TC 83 959 -19.4951 113.355 2 -18.8600 113.839 TC 91 956 6 190
1976015S18122 1976 6 SI WA VANESSA 1976-01-24 18:00:00 TS -19.4579 113.523 85 bom main 273 273 O_____I__IP_O_ jtwc_sh SH111976 -19.7000 113.300 -1 -19.3000 113.700 40 85 959 5.00000 -19.3000 113.700 TC 80 962 -19.6473 113.336 2 -19.1000 113.800 TC 90 958 6 190
1976015S18122 1976 6 SI WA VANESSA 1976-01-24 19:00:00 TS -19.5597 113.512 80 960 bom main 262 240 P_____O__PP_P_ SH111976 -19.7754 113.291 -1 -19.4000 113.700 40 80 960 5.00000 -19.4469 113.675 TC 78 963 -19.7274 113.325 2 -19.2329 113.791 TC 88 959 7 188
1976015S18122 1976 6 SI WA VANESSA 1976-01-24 21:00:00 TS -19.7926 113.478 main 240 229 P_____P__PP_P_ SH111976 -19.9275 113.272 -1 -19.7236 113.642 40 80 963 -19.7500 113.615 TC 75 966 -19.8995 113.291 2 -19.5275 113.772 TC 85 962 7 188
1976015S18122 1976 6 SI WA VANESSA 1976-01-24 22:00:00 TS -19.9164 113.453 80 965 bom main 229 210 P_____O__PP_P_ SH111976 -20.0096 113.257 -1 -19.9000 113.600 40 80 965 5.00000 -19.9025 113.580 TC 73 967 -19.9932 113.267 2 -19.6837 113.757 TC 83 963 8 192
1976015S18122 1976 6 SI WA VANESSA 1976-01-25 00:00:00 TS -20.1620 113.389 main 200 189 O_____P__OO_O_ jtwc_sh SH111976 -20.2000 113.200 -1 -20.1721 113.533 40 80 968 -20.2000 113.500 TC 70 970 -20.2000 113.200 2 -20.0000 113.700 TC 80 966 8 195
1976015S18122 1976 6 SI WA VANESSA 1976-01-25 01:00:00 TS -20.2901 113.345 80 970 bom main 193 172 P_____O__PP_P_ SH111976 -20.3136 113.153 -1 -20.3000 113.500 40 80 970 4.50000 5.00000 -20.3390 113.458 TC 69 970 -20.3219 113.153 2 -20.1526 113.651 TC 78 967 8 200
1976015S18122 1976 6 SI WA VANESSA 1976-01-25 03:00:00 TS -20.5584 113.240 main 167 157 P_____P__PP_P_ SH111976 -20.5700 113.030 -1 -20.5587 113.449 40 73 971 -20.6075 113.365 TC 67 972 -20.5868 113.042 2 -20.4575 113.523 TC 75 969 9 201
1976015S18122 1976 6 SI WA VANESSA 1976-01-25 04:00:00 TS -20.6988 113.176 70 972 bom main 157 144 P_____O__PP_P_ SH111976 -20.7091 112.958 -1 -20.7000 113.400 40 70 972 4.50000 -20.7387 113.313 TC 66 973 -20.7276 112.977 2 -20.6079 113.450 TC 73 970 10 205
1976015S18122 1976 6 SI WA VANESSA 1976-01-25 06:00:00 TS -20.9926 113.023 main 144 136 O_____P__OP_O_ jtwc_sh SH111976 -21.0000 112.800 -1 -21.0358 113.203 40 66 974 -21.0000 113.200 TC 65 975 -21.0199 112.833 2 -20.9000 113.300 TC 70 973 10 205
1976015S18122 1976 6 SI WA VANESSA 1976-01-25 07:00:00 TS -21.1409 112.950 65 975 bom main 144 132 P_____O__PP_P_ SH111976 -21.1495 112.728 -1 -21.2000 113.100 40 65 975 4.50000 -21.1359 113.149 TC 64 975 -21.1692 112.753 2 -21.0416 113.241 TC 69 973 10 205
1976015S18122 1976 6 SI WA VANESSA 1976-01-25 09:00:00 TS -21.4308 112.808 main 136 131 P_____P__PP_P_ SH111976 -21.4574 112.572 -1 -21.4800 112.961 40 61 977 -21.4074 113.037 TC 62 977 -21.4680 112.582 2 -21.3149 113.122 TC 67 975 10 205
1976015S18122 1976 6 SI WA VANESSA 1976-01-25 10:00:00 TS -21.5706 112.732 60 978 bom main 135 131 P_____O__PP_P_ SH111976 -21.6103 112.488 -1 -21.6000 112.900 30 60 978 4.00000 -21.5411 112.970 TC 61 977 -21.6154 112.491 2 -21.4465 113.057 TC 66 975 9 209
1976015S18122 1976 6 SI WA VANESSA 1976-01-25 12:00:00 TS -21.8329 112.564 main 135 135 O_____P__OO_O_ jtwc_sh SH111976 -21.9000 112.300 -1 -21.7975 112.782 30 60 978 -21.8000 112.800 TC 60 979 -21.9000 112.300 2 -21.7000 112.900 TC 65 977 9 213
1976015S18122 1976 6 SI WA VANESSA 1976-01-25 13:00:00 TS -21.9549 112.462 60 979 bom main 131 131 P_____O__PP_P_ SH111976 -22.0281 112.192 -1 -21.9000 112.700 30 60 979 4.00000 -21.9250 112.692 TC 59 979 -22.0232 112.195 2 -21.8250 112.803 TC 64 977 10 221
1976015S18122 1976 6 SI WA VANESSA 1976-01-25 15:00:00 TS -22.1982 112.226 main 150 147 P_____P__PP_P_ SH111976 -22.2651 111.957 -1 -22.1691 112.452 30 56 979 -22.1650 112.438 TC 57 980 -22.2598 111.971 2 -22.0650 112.580 TC 62 979 10 223
1976015S18122 1976 6 SI WA VANESSA 1976-01-25 16:00:00 TS -22.3150 112.097 55 980 bom main 157 155 P_____O__PP_P_ SH111976 -22.3776 111.836 -1 -22.3000 112.300 30 55 980 4.00000 -22.2800 112.296 TC 56 980 -22.3746 111.855 2 -22.1800 112.457 TC 61 979 10 227
1976015S18122 1976 6 SI WA VANESSA 1976-01-25 18:00:00 TS -22.5343 111.832 main 185 184 O_____P__OP_O_ jtwc_sh SH111976 -22.6000 111.600 -1 -22.5054 111.972 30 55 981 -22.5000 112.000 TC 55 982 -22.6006 111.620 2 -22.4000 112.200 TC 60 981 10 229
1976015S18122 1976 6 SI WA VANESSA 1976-01-25 19:00:00 TS -22.6413 111.697 55 982 bom main 194 194 P_____O__PP_P_ SH111976 -22.7140 111.486 -1 -22.6000 111.800 30 55 982 4.00000 -22.6032 111.840 TC 54 982 -22.7132 111.505 2 -22.5031 112.062 TC 59 981 10 229
1976015S18122 1976 6 SI WA VANESSA 1976-01-25 21:00:00 TS -22.8544 111.427 main 227 227 P_____P__PP_P_ SH111976 -22.9425 111.270 -1 -22.8000 111.451 30 51 984 -22.8002 111.513 TC 52 984 -22.9411 111.284 2 -22.7001 111.777 TC 57 982 10 229
1976015S18122 1976 6 SI WA VANESSA 1976-01-25 22:00:00 TS -22.9618 111.304 50 985 bom main 239 239 P_____O__PP_P_ SH111976 -23.0588 111.171 -1 -22.9000 111.300 30 50 985 3.50000 -22.8977 111.358 TC 51 984 -23.0577 111.182 2 -22.7977 111.640 TC 56 982 9 223
1976015S18122 1976 6 SI WA VANESSA 1976-01-26 00:00:00 TS -23.1833 111.096 main 256 256 O_____P__OO_O_ jtwc_sh SH111976 -23.3000 111.000 -1 -23.1000 111.073 30 50 985 -23.1000 111.100 TC 50 986 -23.3000 111.000 2 -23.0000 111.400 TC 55 984 9 218
1976015S18122 1976 6 SI WA VANESSA 1976-01-26 01:00:00 TS -23.2988 111.018 50 986 bom main 263 260 P_____O__PP_P_ SH111976 -23.4249 110.930 -1 -23.2000 111.000 30 50 986 3.00000 3.50000 -23.2056 111.013 TC 50 986 -23.4290 110.930 2 -23.1082 111.305 TC 54 984 8 207
1976015S18122 1976 6 SI WA VANESSA 1976-01-26 03:00:00 TS -23.5352 110.904 main 268 266 P_____P__PP_P_ SH111976 -23.6849 110.820 -1 -23.3842 110.922 30 46 987 -23.4273 110.897 TC 50 987 -23.6949 110.813 2 -23.3349 111.155 TC 52 985 8 201
1976015S18122 1976 6 SI WA VANESSA 1976-01-26 04:00:00 TS -23.6617 110.862 45 988 bom main 265 265 P_____O__PP_P_ SH111976 -23.8199 110.776 -1 -23.5000 110.900 30 45 988 3.00000 -23.5453 110.859 TC 50 987 -23.8317 110.764 2 -23.4532 111.096 TC 51 985 8 196
1976015S18122 1976 6 SI WA VANESSA 1976-01-26 06:00:00 TS -23.9404 110.786 main 269 265 O_____P__OP_O_ jtwc_sh SH111976 -24.1000 110.700 -1 -23.8304 110.833 30 45 988 -23.8000 110.800 TC 50 988 -24.1121 110.681 2 -23.7000 111.000 TC 50 987 9 194
1976015S18122 1976 6 SI WA VANESSA 1976-01-26 07:00:00 TS -24.0842 110.749 45 988 bom main 275 273 P_____O__PP_P_ SH111976 -24.2443 110.661 -1 -24.0000 110.800 30 45 988 3.00000 -23.9386 110.763 TC 49 988 -24.2555 110.646 2 -23.8223 110.960 TC 49 987 9 193
1976015S18122 1976 6 SI WA VANESSA 1976-01-26 09:00:00 TS -24.3696 110.684 main 273 273 P_____P__PP_P_ SH111976 -24.5425 110.592 -1 -24.2721 110.733 30 41 989 -24.2350 110.700 TC 47 989 -24.5482 110.585 2 -24.0774 110.900 TC 47 988 9 191
1976015S18122 1976 6 SI WA VANESSA 1976-01-26 10:00:00 TS -24.5146 110.653 40 990 bom main 273 273 P_____O__PP_P_ SH111976 -24.6945 110.561 -1 -24.4000 110.700 30 40 990 3.00000 -24.3891 110.669 TC 46 989 -24.6972 110.556 2 -24.2120 110.871 TC 46 988 9 192
1976015S18122 1976 6 SI WA VANESSA 1976-01-26 12:00:00 TS -24.8098 110.590 main 286 286 O_____P__OO_O_ jtwc_sh SH111976 -25.0000 110.500 -1 -24.6588 110.641 30 40 990 -24.7000 110.600 TC 45 991 -25.0000 110.500 2 -24.5000 110.800 TC 45 990 9 192
1976015S18122 1976 6 SI WA VANESSA 1976-01-26 13:00:00 TS -24.9575 110.547 40 991 bom main 300 296 P_____O__PP_P_ SH111976 -25.1474 110.467 -1 -24.8000 110.600 30 40 991 3.00000 -24.8448 110.556 TC 44 991 -25.1504 110.454 2 -24.6553 110.740 TC 44 990 10 196
1976015S18122 1976 6 SI WA VANESSA 1976-01-26 15:00:00 TS -25.2649 110.448 main 303 300 P_____P__PP_P_ SH111976 -25.4425 110.400 -1 -25.1279 110.472 30 40 991 -25.1350 110.457 TC 42 992 -25.4566 110.361 2 -24.9851 110.600 TC 42 991 10 196
1976015S18122 1976 6 SI WA VANESSA 1976-01-26 16:00:00 TS -25.4227 110.397 40 992 bom main 300 295 P_____O__PP_P_ SH111976 -25.5921 110.367 -1 -25.3000 110.400 30 40 992 3.00000 -25.2842 110.405 TC 41 992 -25.6121 110.316 2 -25.1559 110.529 TC 41 991 10 196
1976015S18122 1976 6 SI WA VANESSA 1976-01-26 18:00:00 TS -25.7422 110.299 main 303 300 O_____P__OP_O_ jtwc_sh SH111976 -25.9000 110.300 -1 -25.6254 110.259 30 33 993 -25.6000 110.300 TC 40 994 -25.9275 110.234 2 -25.5000 110.400 TC 40 993 10 195
1976015S18122 1976 6 SI WA VANESSA 1976-01-26 19:00:00 TS -25.9093 110.249 30 994 bom main 310 309 P_____O__PP_P_ SH111976 -26.0610 110.256 -1 -25.8000 110.200 20 30 994 2.50000 -25.7772 110.234 TC 40 994 -26.0872 110.197 2 -25.6693 110.347 TC 40 993 11 194
1976015S18122 1976 6 SI WA VANESSA 1976-01-26 21:00:00 TS -26.2591 110.163 main 308 308 P_____P__PP_P_ SH111976 -26.3925 110.170 -1 -26.2025 110.128 20 30 994 -26.1500 110.106 TC 40 994 -26.4097 110.139 2 -26.0075 110.263 TC 40 993 11 191
1976015S18122 1976 6 SI WA VANESSA 1976-01-26 22:00:00 TS -26.4346 110.129 30 994 bom main 318 318 P_____O__PP_P_ SH111976 -26.5612 110.135 -1 -26.4000 110.100 20 30 994 2.50000 -26.3383 110.053 TC 40 994 -26.5724 110.119 2 -26.1745 110.232 TC 40 993 10 188
1976015S18122 1976 6 SI WA VANESSA 1976-01-27 00:00:00 TS -26.7731 110.085 main 322 322 O_____P__OO_O_ jtwc_sh SH111976 -26.9000 110.100 -1 -26.7388 110.010 20 30 994 -26.7000 110.000 TC 40 995 -26.9000 110.100 2 -26.5000 110.200 TC 40 994 10 184
1976015S18122 1976 6 SI WA VANESSA 1976-01-27 01:00:00 TS -26.9353 110.091 30 995 bom main 324 323 P_____O__PP_P_ SH111976 -27.0667 110.110 -1 -26.9000 110.000 20 30 995 2.00000 2.50000 -26.8667 110.018 TC 39 995 -27.0535 110.112 2 -26.6583 110.197 TC 40 994 10 172
1976015S18122 1976 6 SI WA VANESSA 1976-01-27 03:00:00 TS -27.2591 110.160 main 327 327 P_____P__PP_P_ SH111976 -27.4000 110.170 -1 -27.2492 110.125 20 30 995 -27.1800 110.112 TC 37 995 -27.3604 110.161 2 -26.9650 110.220 TC 40 994 10 168
1976015S18122 1976 6 SI WA VANESSA 1976-01-27 04:00:00 TS -27.4148 110.206 30 995 bom main 330 330 P_____O__PP_P_ SH111976 -27.5667 110.211 -1 -27.4000 110.200 20 30 995 2.50000 -27.3267 110.175 TC 36 995 -27.5155 110.195 2 -27.1133 110.242 TC 40 994 9 165
1976015S18122 1976 6 SI WA VANESSA 1976-01-27 06:00:00 TS -27.7073 110.291 main 335 335 O_____P__OP_O_ jtwc_sh SH111976 -27.9000 110.300 -1 -27.6109 110.272 20 30 995 -27.6000 110.300 TC 35 996 -27.8327 110.275 2 -27.4000 110.300 TC 40 995 9 166
1976015S18122 1976 6 SI WA VANESSA 1976-01-27 07:00:00 TS -27.8416 110.329 30 996 bom main 340 337 P_____O__PP_P_ SH111976 -28.0588 110.339 -1 -27.7000 110.300 20 30 996 2.50000 -27.7097 110.347 TC 35 996 -27.9966 110.318 2 -27.5259 110.333 TC 39 995 8 166
1976015S18122 1976 6 SI WA VANESSA 1976-01-27 09:00:00 TS -28.1114 110.406 main 349 349 P_____P__PP_P_ SH111976 -28.3775 110.415 -1 -27.8921 110.367 20 30 996 -27.9125 110.430 TC 35 996 -28.3386 110.402 2 -27.7700 110.407 TC 37 995 9 167
1976015S18122 1976 6 SI WA VANESSA 1976-01-27 10:00:00 TS -28.2543 110.441 30 997 bom main 362 353 P_____O__PP_P_ SH111976 -28.5430 110.449 -1 -28.0000 110.400 20 30 997 2.50000 -28.0222 110.462 TC 35 996 -28.5185 110.440 2 -27.8993 110.444 TC 36 995 9 171
1976015S18122 1976 6 SI WA VANESSA 1976-01-27 12:00:00 TS -28.5716 110.497 main 363 363 O_____P__OO_O_ jtwc_sh SH111976 -28.9000 110.500 -1 -28.2296 110.482 20 30 997 -28.3000 110.500 TC 35 997 -28.9000 110.500 2 -28.2000 110.500 TC 35 996 10 173
1976015S18122 1976 6 SI WA VANESSA 1976-01-27 13:00:00 TS -28.7587 110.510 30 997 bom main 369 369 P_____O__PP_P_ SH111976 -29.0943 110.514 -1 -28.4000 110.500 20 30 997 2.50000 -28.4829 110.498 TC 35 997 -29.1030 110.520 2 -28.3776 110.512 TC 35 996 13 0
1976015S18122 1976 6 SI WA VANESSA 1976-01-27 15:00:00 TS -29.1948 110.500 main 380 380 P_____P__PP_P_ SH111976 -29.5125 110.523 -1 -28.9116 110.436 20 30 997 -28.9175 110.465 TC 35 997 -29.5321 110.538 2 -28.7825 110.515 TC 35 996 14 0
1976015S18122 1976 6 SI WA VANESSA 1976-01-27 16:00:00 TS -29.4329 110.488 30 997 bom main 388 388 P_____O__PP_P_ SH111976 -29.7346 110.519 -1 -29.2000 110.400 20 30 997 2.50000 -29.1637 110.442 TC 35 997 -29.7566 110.538 2 -29.0079 110.511 TC 35 996 15 0
1976015S18122 1976 6 SI WA VANESSA 1976-01-27 18:00:00 TS -29.9246 110.470 main 411 411 O_____P__OP_O_ jtwc_sh SH111976 -30.2000 110.500 -1 -29.7254 110.395 20 26 997 -29.7000 110.400 TC 35 998 -30.2224 110.523 2 -29.5000 110.500 TC 35 997 15 181
1976015S18122 1976 6 SI WA VANESSA 1976-01-27 19:00:00 TS -30.1824 110.461 25 998 bom main 425 425 P_____O__PP_P_ SH111976 -30.4415 110.487 -1 -30.0000 110.400 20 25 998 2.00000 -29.9847 110.388 TC 34 998 -30.4621 110.508 2 -29.7646 110.497 TC 34 997 16 182
1976015S18122 1976 6 SI WA VANESSA 1976-01-27 21:00:00 TS -30.7136 110.441 main 447 447 P_____P__PP_P_ SH111976 -30.9375 110.455 -1 -30.5946 110.400 20 25 998 -30.5775 110.382 TC 32 999 -30.9516 110.471 2 -30.3225 110.495 TC 32 998 16 181
1976015S18122 1976 6 SI WA VANESSA 1976-01-27 22:00:00 TS -30.9883 110.432 25 998 bom main 451 451 P_____O__PP_P_ SH111976 -31.1901 110.437 -1 -30.9000 110.400 20 25 998 2.00000 -30.8822 110.386 TC 31 999 -31.1999 110.448 2 -30.6116 110.496 TC 31 998 17 181
1976015S18122 1976 6 SI WA VANESSA 1976-01-28 00:00:00 TS -31.5434 110.414 main 460 460 O_____P__OO_O_ jtwc_sh SH111976 -31.7000 110.400 -1 -31.5020 110.400 20 25 999 -31.5000 110.400 TC 30 1000 -31.7000 110.400 2 -31.2000 110.500 TC 30 999 16 181
1976015S18122 1976 6 SI WA VANESSA 1976-01-28 01:00:00 NR -31.8000 110.400 25 1000 bom main 469 ______O_______ SH111976 -1 -31.8000 110.400 20 25 1000 1.00000 1.50000 TC 2 TC 15 0

About IBTrACS Database

This database is a web-friendly format of International Best Track Archive for Climate Stewardship (IBTrACS), a global best track data archive curated by NOAA dating back to 1842.

Updated: 2021-10-21